Time;durP1;ratioP1;P1;durP2;ratioP2;P2;SDS_P1;SDS_P2;PMS_P1;PMS_P2;Temp;Humidity;BMP_temperature;BMP_pressure;BME280_temperature;BME280_humidity;BME280_pressure;Samples;Min_cycle;Max_cycle;Signal;HPM_P1;HPM_P2
2021/11/11 00:01:03;;;;;;;13.52;7.28;;;;;;;-142.99;100.00;49761.56;5035621;28;20053;-77
2021/11/11 00:03:31;;;;;;;13.18;6.63;;;;;;;-142.99;100.00;49777.44;5035764;28;20381;-76
2021/11/11 00:05:59;;;;;;;11.60;6.95;;;;;;;-142.99;100.00;49819.19;5038945;28;20052;-75
2021/11/11 00:08:26;;;;;;;11.02;6.40;;;;;;;-142.99;100.00;49799.31;5035456;28;20048;-73
2021/11/11 00:10:53;;;;;;;13.40;7.03;;;;;;;-142.99;100.00;49803.28;5028716;28;20412;-73
2021/11/11 00:13:20;;;;;;;12.18;6.18;;;;;;;-142.99;100.00;49841.06;5023779;28;20495;-74
2021/11/11 00:15:48;;;;;;;10.85;6.85;;;;;;;-142.99;100.00;49813.25;5023727;28;20092;-73
2021/11/11 00:18:16;;;;;;;10.05;6.30;;;;;;;-142.99;100.00;49805.28;5022908;28;20049;-74
2021/11/11 00:22:57;;;;;;;12.93;6.85;;;;;;;-142.99;100.00;49765.53;5057168;27;20413;-73
2021/11/11 00:25:25;;;;;;;12.60;7.35;;;;;;;-142.99;100.00;49761.56;5046465;28;20061;-74
2021/11/11 00:27:52;;;;;;;12.25;7.03;;;;;;;-142.99;100.00;49807.28;5050240;28;20617;-73
2021/11/11 00:30:20;;;;;;;16.67;7.88;;;;;;;-142.99;100.00;49785.41;5050795;28;20474;-74
2021/11/11 00:32:49;;;;;;;14.55;9.13;;;;;;;-142.99;100.00;49797.34;5046843;28;20738;-75
2021/11/11 00:35:20;;;;;;;16.42;9.30;;;;;;;-142.99;100.00;49805.28;5029162;28;20055;-77
2021/11/11 00:37:48;;;;;;;17.73;9.33;;;;;;;-142.99;100.00;49749.63;5028947;28;20382;-76
2021/11/11 00:40:16;;;;;;;17.70;9.38;;;;;;;-142.99;100.00;49739.69;5046569;28;20516;-77
2021/11/11 00:42:45;;;;;;;15.40;9.27;;;;;;;-142.99;100.00;49785.41;5045875;28;20435;-77
2021/11/11 00:45:12;;;;;;;15.88;9.82;;;;;;;-142.99;100.00;49783.41;5025863;28;20776;-76
2021/11/11 00:47:39;;;;;;;19.35;9.95;;;;;;;-142.99;100.00;49779.44;5026552;28;20041;-76
2021/11/11 00:50:10;;;;;;;19.83;10.63;;;;;;;-142.99;100.00;49805.28;5026845;28;20094;-77
2021/11/11 00:52:37;;;;;;;14.70;10.38;;;;;;;-142.99;100.00;49781.44;5027230;28;20413;-79
2021/11/11 00:55:05;;;;;;;17.63;10.75;;;;;;;-142.99;100.00;49781.44;5031626;28;20059;-78
2021/11/11 00:57:32;;;;;;;17.60;9.95;;;;;;;-142.99;100.00;49765.53;5029705;28;20132;-77
2021/11/11 00:59:59;;;;;;;15.18;10.20;;;;;;;-142.99;100.00;49783.41;5030649;28;20085;-77
2021/11/11 01:02:26;;;;;;;21.20;11.02;;;;;;;-142.99;100.00;49763.53;5027393;28;20147;-78
2021/11/11 01:04:54;;;;;;;18.35;10.70;;;;;;;-142.99;100.00;49777.44;5054026;22;20031;-81
2021/11/11 01:07:21;;;;;;;17.27;9.98;;;;;;;-142.99;100.00;49791.38;5017259;28;20115;-81
2021/11/11 01:09:49;;;;;;;15.02;9.85;;;;;;;-142.99;100.00;49813.25;5049489;28;20595;-82
2021/11/11 01:12:16;;;;;;;17.85;9.95;;;;;;;-142.99;100.00;49827.16;5029918;28;20522;-83
2021/11/11 01:14:43;;;;;;;19.15;9.35;;;;;;;-142.99;100.00;49791.38;5025590;28;20550;-80
2021/11/11 01:17:10;;;;;;;12.98;8.55;;;;;;;-142.99;100.00;49791.38;5023506;28;20049;-80
2021/11/11 01:19:37;;;;;;;23.73;10.20;;;;;;;-142.99;100.00;49803.28;5024995;28;20055;-80
2021/11/11 01:22:06;;;;;;;14.13;8.80;;;;;;;-142.99;100.00;49765.53;5034835;28;20044;-80
2021/11/11 01:24:33;;;;;;;19.92;9.73;;;;;;;-142.99;100.00;49785.41;5038826;28;20056;-80
2021/11/11 01:27:00;;;;;;;18.40;10.85;;;;;;;-142.99;100.00;49769.50;5057573;28;20099;-81
2021/11/11 01:29:27;;;;;;;13.55;9.82;;;;;;;-142.99;100.00;49803.28;5027444;28;20069;-81
2021/11/11 01:31:55;;;;;;;18.67;10.35;;;;;;;-142.99;100.00;49763.53;5036681;28;20067;-81
2021/11/11 01:34:26;;;;;;;16.70;9.70;;;;;;;-142.99;100.00;49779.44;4999951;28;20077;-81
2021/11/11 01:36:55;;;;;;;15.15;10.20;;;;;;;-142.99;100.00;49801.31;5025943;28;20143;-81
2021/11/11 01:39:23;;;;;;;21.38;9.43;;;;;;;-142.99;100.00;49797.34;5017053;28;20057;-82
2021/11/11 01:41:51;;;;;;;17.80;9.75;;;;;;;-142.99;100.00;49799.31;5024937;28;20053;-80
2021/11/11 01:44:21;;;;;;;22.80;11.15;;;;;;;-142.99;100.00;49791.38;5017714;28;20507;-80
2021/11/11 01:46:48;;;;;;;19.48;10.00;;;;;;;-142.99;100.00;49811.25;5018223;28;20242;-80
2021/11/11 01:49:16;;;;;;;15.93;9.73;;;;;;;-142.99;100.00;49793.34;5016794;28;20512;-81
2021/11/11 01:51:47;;;;;;;20.67;11.60;;;;;;;-142.99;100.00;49787.41;5006574;28;20114;-81
2021/11/11 01:54:17;;;;;;;16.85;10.60;;;;;;;-142.99;100.00;49801.31;5007566;28;20042;-81
2021/11/11 01:56:45;;;;;;;19.58;10.70;;;;;;;-142.99;100.00;49787.41;5031133;28;20428;-81
2021/11/11 01:59:12;;;;;;;16.05;10.80;;;;;;;-142.99;100.00;49803.28;5042152;28;20053;-81
2021/11/11 02:01:39;;;;;;;17.90;11.50;;;;;;;-142.99;100.00;49819.19;5028298;28;20476;-81
2021/11/11 02:04:07;;;;;;;17.17;11.15;;;;;;;-142.99;100.00;49817.22;5024309;28;20530;-81
2021/11/11 02:06:35;;;;;;;19.65;10.80;;;;;;;-142.99;100.00;49757.56;5023145;28;20053;-80
2021/11/11 02:09:03;;;;;;;20.13;11.45;;;;;;;-142.99;100.00;49801.31;5026950;28;20045;-80
2021/11/11 02:11:30;;;;;;;20.23;10.88;;;;;;;-142.99;100.00;49801.31;5028912;28;20084;-81
2021/11/11 02:13:58;;;;;;;15.32;10.35;;;;;;;-142.99;100.00;49787.41;5045927;28;20053;-81
2021/11/11 02:16:25;;;;;;;16.08;10.30;;;;;;;-142.99;100.00;49799.31;5024860;28;20052;-80
2021/11/11 02:18:52;;;;;;;18.85;11.45;;;;;;;-142.99;100.00;49807.28;5025583;28;20080;-80
2021/11/11 02:21:19;;;;;;;19.02;12.40;;;;;;;-142.99;100.00;49787.41;5027770;28;20416;-80
2021/11/11 02:23:47;;;;;;;20.65;12.00;;;;;;;-142.99;100.00;49811.25;5037245;28;20140;-79
2021/11/11 02:26:17;;;;;;;18.15;10.88;;;;;;;-142.99;100.00;49821.19;5021064;28;20519;-81
2021/11/11 02:28:46;;;;;;;25.90;12.77;;;;;;;-142.99;100.00;49799.31;5025470;28;20144;-80
2021/11/11 02:31:15;;;;;;;23.60;12.88;;;;;;;-142.99;100.00;49805.28;5029485;28;20045;-80
2021/11/11 02:33:55;;;;;;;21.23;12.57;;;;;;;-142.99;100.00;49789.38;5018934;28;20049;-79
2021/11/11 02:36:22;;;;;;;22.00;13.60;;;;;;;-142.99;100.00;49803.28;5019330;28;20126;-80
2021/11/11 02:38:49;;;;;;;22.73;13.57;;;;;;;-142.99;100.00;49789.38;5024090;28;20049;-80
2021/11/11 02:41:17;;;;;;;23.95;14.68;;;;;;;-142.99;100.00;49765.53;4985359;28;20072;-79
2021/11/11 02:43:44;;;;;;;21.77;13.63;;;;;;;-142.99;100.00;49791.38;5004668;28;20107;-79
2021/11/11 02:46:12;;;;;;;24.08;13.45;;;;;;;-142.99;100.00;49809.25;5010109;28;20045;-78
2021/11/11 02:48:39;;;;;;;29.92;16.52;;;;;;;-142.99;100.00;49803.28;5025900;28;20050;-78
2021/11/11 02:51:06;;;;;;;25.65;14.73;;;;;;;-142.99;100.00;49837.09;4993936;28;20535;-79
2021/11/11 02:53:34;;;;;;;26.20;14.55;;;;;;;-142.99;100.00;49801.31;5018751;28;20057;-79
2021/11/11 02:56:01;;;;;;;19.73;10.93;;;;;;;-142.99;100.00;49807.28;5022445;28;20053;-79
2021/11/11 02:58:28;;;;;;;18.80;10.48;;;;;;;-142.99;100.00;49785.41;4998872;28;20045;-80
2021/11/11 03:01:03;;;;;;;17.10;9.48;;;;;;;-142.99;100.00;49793.34;5040293;28;20124;-79
2021/11/11 03:03:32;;;;;;;15.82;9.80;;;;;;;-142.99;100.00;49793.34;5012640;28;20076;-80
2021/11/11 03:05:59;;;;;;;14.52;9.32;;;;;;;-142.99;100.00;49783.41;5000386;28;20050;-79
2021/11/11 03:08:27;;;;;;;16.00;10.25;;;;;;;-142.99;100.00;49795.34;5014618;28;20049;-78
2021/11/11 03:10:54;;;;;;;18.65;11.50;;;;;;;-142.99;100.00;49793.34;5019795;28;20183;-80
2021/11/11 03:13:22;;;;;;;18.63;10.70;;;;;;;-142.99;100.00;49817.22;4999956;28;20108;-79
2021/11/11 03:15:54;;;;;;;17.20;11.35;;;;;;;-142.99;100.00;49777.44;5005719;28;20510;-79
2021/11/11 03:18:21;;;;;;;;;;;;;;;-142.99;100.00;49787.41;5006079;28;20045;-79
2021/11/11 03:20:49;;;;;;;22.52;13.65;;;;;;;-142.99;100.00;49813.25;5001696;28;19935;-80
2021/11/11 03:23:16;;;;;;;28.60;17.08;;;;;;;-142.99;100.00;49799.31;5018427;28;20065;-80
2021/11/11 03:25:43;;;;;;;22.80;12.98;;;;;;;-142.99;100.00;49791.38;5003161;28;20049;-80
2021/11/11 03:28:10;;;;;;;27.25;13.93;;;;;;;-142.99;100.00;49803.28;5027615;28;20045;-80
2021/11/11 03:30:38;;;;;;;37.53;17.17;;;;;;;-142.99;100.00;49825.16;4994820;28;20053;-80
2021/11/11 03:35:27;;;;;;;38.47;19.92;;;;;;;-142.99;100.00;49809.25;5003100;28;20370;-77
2021/11/11 03:37:59;;;;;;;42.50;21.45;;;;;;;-142.99;100.00;49797.34;4996615;28;20049;-76
2021/11/11 03:40:29;;;;;;;41.20;22.40;;;;;;;-142.99;100.00;49795.34;4977264;28;20520;-76
2021/11/11 03:42:58;;;;;;;41.80;22.48;;;;;;;-142.99;100.00;49805.28;4980480;28;20054;-76
2021/11/11 03:45:26;;;;;;;41.03;21.40;;;;;;;-142.99;100.00;49799.31;4989455;28;20470;-77
2021/11/11 03:47:53;;;;;;;46.03;22.35;;;;;;;-142.99;100.00;49787.41;4997975;28;20042;-77
2021/11/11 03:50:21;;;;;;;46.58;22.55;;;;;;;-142.99;100.00;49779.44;4994032;28;20052;-78
2021/11/11 03:52:49;;;;;;;52.53;22.85;;;;;;;-142.99;100.00;49779.44;5001227;28;20042;-75
2021/11/11 03:55:22;;;;;;;52.33;22.98;;;;;;;-142.99;100.00;49761.56;4998056;28;20531;-76
2021/11/11 03:57:51;;;;;;;49.00;23.60;;;;;;;-142.99;100.00;49817.22;5006110;28;20400;-75
2021/11/11 04:00:18;;;;;;;47.33;22.52;;;;;;;-142.99;100.00;49787.41;5011324;28;20061;-77
2021/11/11 04:02:46;;;;;;;46.03;22.55;;;;;;;-142.99;100.00;49813.25;4983773;28;20451;-75
2021/11/11 04:05:14;;;;;;;46.15;23.90;;;;;;;-142.99;100.00;49753.59;5000849;28;20038;-78
2021/11/11 04:07:41;;;;;;;52.90;23.45;;;;;;;-142.99;100.00;49761.56;5017267;28;20060;-76
2021/11/11 04:10:09;;;;;;;45.35;20.88;;;;;;;-142.99;100.00;49793.34;5017193;28;20501;-77
2021/11/11 04:12:58;;;;;;;44.78;22.30;;;;;;;-142.99;100.00;49757.56;5007316;28;20483;-77
2021/11/11 04:15:26;;;;;;;43.03;22.52;;;;;;;-142.99;100.00;49801.31;5015480;28;20458;-77
2021/11/11 04:17:52;;;;;;;40.90;22.40;;;;;;;-142.99;100.00;49789.38;5013432;28;20054;-77
2021/11/11 04:20:20;;;;;;;40.53;21.30;;;;;;;-142.99;100.00;49787.41;5016489;28;20071;-78
2021/11/11 04:22:47;;;;;;;39.53;20.80;;;;;;;-142.99;100.00;49781.44;5014925;28;20053;-77
2021/11/11 04:25:22;;;;;;;35.83;19.75;;;;;;;-142.99;100.00;49769.50;5009869;28;20042;-77
2021/11/11 04:28:12;;;;;;;36.65;19.50;;;;;;;-142.99;100.00;49779.44;5008765;28;20049;-76
2021/11/11 04:30:40;;;;;;;37.00;17.60;;;;;;;-142.99;100.00;49823.19;5008403;28;20504;-76
2021/11/11 04:33:08;;;;;;;30.95;18.88;;;;;;;-142.99;100.00;49773.47;5015721;28;20064;-76
2021/11/11 04:35:36;;;;;;;34.95;19.27;;;;;;;-142.99;100.00;49781.44;5008202;28;21099;-76
2021/11/11 04:38:25;;;;;;;35.65;18.13;;;;;;;-142.99;100.00;49799.31;5007176;28;20058;-76
2021/11/11 04:49:26;;;;;;;37.08;18.85;;;;;;;-142.99;100.00;49825.16;4989647;28;20054;-77
2021/11/11 04:52:10;;;;;;;34.50;18.52;;;;;;;-142.99;100.00;49777.44;4995217;28;20097;-77
2021/11/11 05:00:26;;;;;;;36.45;17.95;;;;;;;-142.99;100.00;49779.44;4996700;28;20520;-76
2021/11/11 05:03:12;;;;;;;36.20;17.23;;;;;;;-142.99;100.00;49781.44;5005317;28;20049;-76
2021/11/11 05:05:40;;;;;;;37.13;17.70;;;;;;;-142.99;100.00;49787.41;4997522;28;20054;-76
2021/11/11 05:08:08;;;;;;;29.67;18.58;;;;;;;-142.99;100.00;49801.31;5000281;28;20134;-77
2021/11/11 05:10:36;;;;;;;34.42;17.90;;;;;;;-142.99;100.00;49793.34;4993721;28;20408;-76
2021/11/11 05:13:03;;;;;;;44.53;19.38;;;;;;;-142.99;100.00;49783.41;5000429;28;20499;-75
2021/11/11 05:15:30;;;;;;;34.63;18.13;;;;;;;-142.99;100.00;49805.28;4996612;28;20165;-76
2021/11/11 05:17:56;;;;;;;35.65;19.83;;;;;;;-142.99;100.00;49787.41;5001864;28;20616;-76
2021/11/11 05:20:23;;;;;;;35.10;18.33;;;;;;;-142.99;100.00;49791.38;4985483;28;20129;-76
2021/11/11 05:22:52;;;;;;;32.45;18.88;;;;;;;-142.99;100.00;49805.28;4997497;28;20468;-75
2021/11/11 05:25:20;;;;;;;31.83;17.00;;;;;;;-142.99;100.00;49799.31;4975458;28;20109;-75
2021/11/11 05:27:47;;;;;;;35.63;17.85;;;;;;;-142.99;100.00;49793.34;4962396;28;20055;-75
2021/11/11 05:30:16;;;;;;;28.67;15.73;;;;;;;-142.99;100.00;49807.28;4961186;28;20631;-77
2021/11/11 05:32:43;;;;;;;32.05;17.00;;;;;;;-142.99;100.00;49791.38;4958296;28;20051;-76
2021/11/11 05:35:11;;;;;;;28.02;16.52;;;;;;;-142.99;100.00;49777.44;4934136;28;20075;-76
2021/11/11 05:37:39;;;;;;;35.55;18.27;;;;;;;-142.99;100.00;49799.31;4958281;28;20054;-76
2021/11/11 05:40:08;;;;;;;32.75;17.33;;;;;;;-142.99;100.00;49779.44;4981027;28;20608;-77
2021/11/11 05:42:35;;;;;;;32.67;18.42;;;;;;;-142.99;100.00;49851.00;4971292;28;20323;-77
2021/11/11 05:45:05;;;;;;;34.00;17.95;;;;;;;-142.99;100.00;49793.34;4973934;28;20046;-76
2021/11/11 05:47:31;;;;;;;40.45;18.30;;;;;;;-142.99;100.00;49831.13;4978930;28;20602;-76
2021/11/11 05:52:20;;;;;;;35.63;16.98;;;;;;;-142.99;100.00;49821.19;5026916;28;20183;-76
2021/11/11 05:54:47;;;;;;;31.67;15.90;;;;;;;-142.99;100.00;49813.25;5028985;28;20403;-76
2021/11/11 05:57:14;;;;;;;40.83;18.45;;;;;;;-142.99;100.00;49821.19;5031323;28;21041;-76
2021/11/11 05:59:40;;;;;;;32.08;17.15;;;;;;;-142.99;100.00;49860.94;5023316;28;20046;-75
2021/11/11 06:02:12;;;;;;;31.40;16.38;;;;;;;-142.99;100.00;49837.09;5006208;28;20050;-76
2021/11/11 06:04:41;;;;;;;34.15;15.77;;;;;;;-142.99;100.00;49825.16;5012890;28;20066;-75
2021/11/11 06:07:09;;;;;;;33.60;15.70;;;;;;;-142.99;100.00;49855.00;5021390;28;20350;-75
2021/11/11 06:09:36;;;;;;;39.38;17.52;;;;;;;-142.99;100.00;49827.16;5011057;28;20104;-76
2021/11/11 06:12:06;;;;;;;29.67;15.95;;;;;;;-142.99;100.00;49837.09;5010231;28;20342;-76
2021/11/11 06:14:32;;;;;;;30.10;15.40;;;;;;;-142.99;100.00;49817.22;5002471;28;20049;-77
2021/11/11 06:17:05;;;;;;;30.00;14.95;;;;;;;-142.99;100.00;49809.25;5006849;28;20261;-75
2021/11/11 06:19:37;;;;;;;21.17;12.15;;;;;;;-142.99;100.00;49811.25;4999255;28;20130;-77
2021/11/11 06:22:07;;;;;;;30.15;14.20;;;;;;;-142.99;100.00;49805.28;4992929;28;20139;-77
2021/11/11 06:24:34;;;;;;;31.52;16.33;;;;;;;-142.99;100.00;49833.13;5003161;28;20489;-76
2021/11/11 06:27:02;;;;;;;30.42;16.05;;;;;;;-142.99;100.00;49862.94;5007506;28;20479;-75
2021/11/11 06:29:28;;;;;;;29.75;15.10;;;;;;;-142.99;100.00;49811.25;4995604;28;20408;-75
2021/11/11 06:31:55;;;;;;;29.85;15.25;;;;;;;-142.99;100.00;49872.88;4988660;28;20041;-76
2021/11/11 06:34:30;;;;;;;24.35;13.15;;;;;;;-142.99;100.00;49835.09;5002958;28;20346;-76
2021/11/11 06:36:57;;;;;;;29.50;14.07;;;;;;;-142.99;100.00;49827.16;5001988;28;20046;-78
2021/11/11 06:39:24;;;;;;;24.30;13.13;;;;;;;-142.99;100.00;49876.84;4990018;28;20472;-77
2021/11/11 06:41:51;;;;;;;19.52;11.38;;;;;;;-142.99;100.00;49835.09;5007566;28;20128;-75
2021/11/11 06:44:20;;;;;;;21.42;13.30;;;;;;;-142.99;100.00;49791.38;5001391;28;20062;-76
2021/11/11 06:46:47;;;;;;;24.13;14.02;;;;;;;-142.99;100.00;49878.84;5011108;28;20122;-76
2021/11/11 06:49:14;;;;;;;30.52;16.45;;;;;;;-142.99;100.00;49819.19;4999454;28;20567;-76
2021/11/11 06:51:41;;;;;;;30.52;15.88;;;;;;;-142.99;100.00;49862.94;5009792;28;20548;-77
2021/11/11 06:54:09;;;;;;;34.25;16.10;;;;;;;-142.99;100.00;49855.00;5024937;28;20424;-75
2021/11/11 06:56:36;;;;;;;32.40;16.15;;;;;;;-142.99;100.00;49845.03;5025730;28;20354;-75
2021/11/11 06:59:04;;;;;;;34.00;15.27;;;;;;;-142.99;100.00;49884.81;5031567;28;20049;-76
2021/11/11 07:01:32;;;;;;;35.03;16.40;;;;;;;-142.99;100.00;49856.97;5021897;28;20497;-76
2021/11/11 07:04:00;;;;;;;31.85;16.63;;;;;;;-142.99;100.00;49833.13;5018401;28;20055;-76
2021/11/11 07:06:27;;;;;;;30.67;14.40;;;;;;;-142.99;100.00;49862.94;5006629;28;20050;-76
2021/11/11 07:08:54;;;;;;;35.72;14.80;;;;;;;-142.99;100.00;49876.84;5017864;28;20048;-77
2021/11/11 07:11:21;;;;;;;30.95;17.25;;;;;;;-142.99;100.00;49829.16;5009149;28;20061;-77
2021/11/11 07:13:48;;;;;;;34.92;16.92;;;;;;;-142.99;100.00;49866.91;5021335;28;20041;-75
2021/11/11 07:16:15;;;;;;;29.25;15.45;;;;;;;-142.99;100.00;49831.13;5008244;28;20082;-76
2021/11/11 07:18:42;;;;;;;36.25;16.85;;;;;;;-142.99;100.00;49866.91;5010193;28;20346;-75
2021/11/11 07:21:09;;;;;;;26.30;14.45;;;;;;;-142.99;100.00;49849.03;4999231;28;20484;-76
2021/11/11 07:23:36;;;;;;;24.80;14.00;;;;;;;-142.99;100.00;49855.00;5007434;28;20125;-75
2021/11/11 07:26:03;;;;;;;29.92;14.82;;;;;;;-142.99;100.00;49860.94;5016500;28;20780;-77
2021/11/11 07:28:30;;;;;;;23.67;13.45;;;;;;;-142.99;100.00;49860.94;5010946;28;20571;-75
2021/11/11 07:30:58;;;;;;;21.73;12.48;;;;;;;-142.99;100.00;49866.91;5008841;28;20370;-75
2021/11/11 07:33:25;;;;;;;19.33;11.15;;;;;;;-142.99;100.00;49880.84;5033047;28;20504;-75
2021/11/11 07:35:52;;;;;;;19.75;11.20;;;;;;;-142.99;100.00;49855.00;5010643;28;20756;-75
2021/11/11 07:38:20;;;;;;;17.35;9.90;;;;;;;-142.99;100.00;49864.94;5010483;28;20058;-76
2021/11/11 07:40:47;;;;;;;22.02;10.40;;;;;;;-142.99;100.00;49864.94;5010799;28;20049;-76
2021/11/11 07:43:15;;;;;;;18.98;9.35;;;;;;;-142.99;100.00;49868.91;5012513;28;20049;-76
2021/11/11 07:45:43;;;;;;;15.10;9.18;;;;;;;-142.99;100.00;49878.84;5010259;28;20103;-75
2021/11/11 07:48:10;;;;;;;12.70;8.25;;;;;;;-142.99;100.00;49874.88;5012046;28;20052;-76
2021/11/11 07:50:39;;;;;;;13.40;8.27;;;;;;;-142.99;100.00;49912.63;5014410;28;20461;-74
2021/11/11 07:53:10;;;;;;;17.55;9.10;;;;;;;-142.99;100.00;49825.16;5011165;28;20051;-75
2021/11/11 07:55:40;;;;;;;12.10;8.20;;;;;;;-142.99;100.00;49853.00;5010776;28;20057;-75
2021/11/11 07:58:09;;;;;;;15.02;7.55;;;;;;;-142.99;100.00;49845.03;5007011;28;20049;-75
2021/11/11 08:00:36;;;;;;;15.95;9.23;;;;;;;-142.99;100.00;49866.91;5010238;28;20096;-76
2021/11/11 08:03:03;;;;;;;18.25;9.38;;;;;;;-142.99;100.00;49845.03;5016924;28;20057;-76
2021/11/11 08:05:32;;;;;;;19.52;9.75;;;;;;;-142.99;100.00;49866.91;5016803;28;20041;-75
2021/11/11 08:07:59;;;;;;;18.52;10.38;;;;;;;-142.99;100.00;49829.16;5003853;28;20054;-74
2021/11/11 08:13:27;;;;;;;24.30;13.45;;;;;;;-142.99;100.00;49841.06;5022718;27;20137;-77
2021/11/11 08:15:56;;;;;;;40.35;18.38;;;;;;;-142.99;100.00;49862.94;5000176;28;20472;-75
2021/11/11 08:18:23;;;;;;;38.83;18.17;;;;;;;-142.99;100.00;49829.16;5001885;28;20042;-75
2021/11/11 08:20:50;;;;;;;37.05;16.92;;;;;;;-142.99;100.00;49823.19;5004591;28;20053;-75
2021/11/11 08:23:17;;;;;;;33.05;17.05;;;;;;;-142.99;100.00;49821.19;5000516;28;20046;-75
2021/11/11 08:25:48;;;;;;;34.58;18.45;;;;;;;-142.99;100.00;49809.25;5025525;28;20384;-75
2021/11/11 08:28:17;;;;;;;30.73;15.75;;;;;;;-142.99;100.00;49805.28;5013237;28;20057;-75
2021/11/11 08:30:45;;;;;;;24.27;12.10;;;;;;;-142.99;100.00;49809.25;5022695;28;20367;-74
2021/11/11 08:33:12;;;;;;;28.83;15.10;;;;;;;-142.99;98.76;49807.28;5026924;28;20440;-75
2021/11/11 08:35:39;;;;;;;21.85;12.85;;;;;;;-142.99;97.27;49785.41;5016730;28;20382;-75
2021/11/11 08:38:05;;;;;;;20.05;10.32;;;;;;;-142.99;96.27;49739.69;5010198;28;20077;-75
2021/11/11 08:40:33;;;;;;;19.10;9.30;;;;;;;-142.99;93.53;49777.44;4999815;28;20107;-75
2021/11/11 08:43:00;;;;;;;21.30;8.95;;;;;;;-142.99;92.78;49819.19;5000313;28;20076;-75
2021/11/11 08:45:29;;;;;;;12.40;8.05;;;;;;;-142.99;93.52;49763.53;5006898;28;20069;-76
2021/11/11 08:47:58;;;;;;;16.83;8.27;;;;;;;-142.99;92.39;49739.69;5005738;28;20075;-76
2021/11/11 08:50:29;;;;;;;18.38;7.90;;;;;;;-142.99;90.05;49743.66;4996622;28;20151;-76
2021/11/11 08:52:58;;;;;;;12.85;6.70;;;;;;;-142.99;87.89;49739.69;5008785;28;20390;-75
2021/11/11 08:55:28;;;;;;;11.00;6.85;;;;;;;-142.99;86.52;49727.75;5007659;28;20052;-76
2021/11/11 08:57:55;;;;;;;23.75;12.68;;;;;;;-142.99;87.31;49719.81;4998490;28;20445;-75
2021/11/11 09:00:25;;;;;;;20.15;11.13;;;;;;;-142.99;85.69;49697.94;4994631;28;20046;-75
2021/11/11 09:02:55;;;;;;;28.50;13.65;;;;;;;-142.99;88.73;49719.81;5010492;28;20473;-76
2021/11/11 09:05:24;;;;;;;37.97;16.35;;;;;;;-142.99;88.51;49686.00;5018183;28;20496;-74
2021/11/11 09:07:53;;;;;;;36.55;17.90;;;;;;;-142.99;86.46;49697.94;5007396;28;20042;-75
2021/11/11 09:10:24;;;;;;;36.40;17.90;;;;;;;-142.99;86.83;49674.06;4994153;28;20054;-75
2021/11/11 09:12:55;;;;;;;40.53;19.58;;;;;;;-142.99;86.77;49658.19;4989780;28;20054;-77
2021/11/11 09:15:26;;;;;;;36.60;19.03;;;;;;;-142.99;82.39;49634.31;4988798;28;20045;-78
2021/11/11 09:17:55;;;;;;;34.75;18.23;;;;;;;-142.99;78.07;49614.44;4957691;28;20361;-75
2021/11/11 09:20:25;;;;;;;34.67;17.50;;;;;;;-142.99;75.37;49572.69;4973982;28;20410;-76
2021/11/11 09:22:54;;;;;;;37.30;17.55;;;;;;;-142.99;77.90;49632.34;4986449;28;20134;-76
2021/11/11 09:28:03;;;;;;;34.95;16.17;;;;;;;-142.99;75.39;49586.59;4992993;28;20169;-76
2021/11/11 09:32:52;;;;;;;41.35;17.58;;;;;;;-142.99;73.36;49570.69;4979822;28;20451;-75
2021/11/11 09:35:21;;;;;;;31.52;16.85;;;;;;;-142.99;74.94;49584.63;4977381;28;20520;-76
2021/11/11 09:37:49;;;;;;;38.15;18.02;;;;;;;-142.99;75.66;49620.41;4983375;28;20069;-76
2021/11/11 09:40:20;;;;;;;44.22;17.13;;;;;;;-142.99;75.68;49612.44;4981173;28;20508;-77
2021/11/11 09:42:48;;;;;;;38.08;18.63;;;;;;;-142.99;82.13;49664.13;4961849;28;20781;-76
2021/11/11 09:45:23;;;;;;;43.85;16.75;;;;;;;-142.99;79.77;49658.19;4977043;28;20046;-77
2021/11/11 09:47:52;;;;;;;30.33;17.38;;;;;;;-142.99;81.21;49624.38;4983118;28;20050;-77
2021/11/11 09:50:23;;;;;;;30.38;17.50;;;;;;;-142.99;82.21;49612.44;4987507;28;20405;-74
2021/11/11 09:52:51;;;;;;;40.38;17.17;;;;;;;-142.99;78.50;49574.69;4987273;28;20476;-76
2021/11/11 10:00:53;;;;;;;28.77;15.85;;;;;;;-142.99;65.43;49270.53;4982177;28;20050;-77
2021/11/11 10:03:23;;;;;;;29.88;15.85;;;;;;;-142.99;63.44;49228.78;4977149;28;20557;-76
2021/11/11 10:05:50;;;;;;;27.08;14.82;;;;;;;-142.99;61.24;49282.47;4978073;28;20096;-75
2021/11/11 10:08:38;;;;;;;25.27;13.95;;;;;;;-142.99;60.85;49286.44;4966556;28;20141;-77
2021/11/11 10:11:13;;;;;;;27.13;13.38;;;;;;;-142.99;58.19;49292.41;4958217;28;20135;-75
2021/11/11 10:13:41;;;;;;;29.35;14.18;;;;;;;-142.99;59.35;49256.63;4959950;28;20479;-77
2021/11/11 10:16:12;;;;;;;24.83;14.15;;;;;;;-142.99;57.40;49338.13;4966217;28;20394;-74
2021/11/11 10:18:39;;;;;;;28.00;14.77;;;;;;;-142.99;58.10;49415.66;4980318;28;20055;-77
2021/11/11 10:21:43;;;;;;;28.27;14.05;;;;;;;-142.99;60.22;49459.38;4967625;28;20287;-78
2021/11/11 10:24:18;;;;;;;26.33;13.25;;;;;;;-142.99;66.46;49566.72;4959668;28;20093;-75
2021/11/11 10:27:13;;;;;;;28.00;14.30;;;;;;;-142.99;70.60;49608.47;4958861;28;20105;-75
2021/11/11 10:29:49;;;;;;;36.72;19.40;;;;;;;-142.99;73.16;49614.44;4925421;28;20054;-73
2021/11/11 10:32:22;;;;;;;41.63;18.27;;;;;;;-142.99;75.68;49582.63;4975428;28;20066;-75
2021/11/11 10:34:56;;;;;;;38.55;17.38;;;;;;;-142.99;78.17;49648.22;4960242;28;20054;-75
2021/11/11 10:37:28;;;;;;;33.15;16.63;;;;;;;-142.99;78.73;49610.47;4961168;28;20433;-78
2021/11/11 10:39:58;;;;;;;32.65;15.00;;;;;;;-142.99;78.12;49620.41;4984648;28;20085;-76
2021/11/11 10:42:28;;;;;;;38.08;15.98;;;;;;;-142.99;78.16;49608.47;4962220;28;20054;-76
2021/11/11 10:48:26;;;;;;;27.20;13.25;;;;;;;-142.99;69.45;49524.97;4983337;27;20480;-77
2021/11/11 10:50:58;;;;;;;25.52;13.00;;;;;;;-142.99;70.74;49568.72;4978202;28;20071;-78
2021/11/11 10:53:29;;;;;;;24.45;12.15;;;;;;;-142.99;71.74;49544.88;4980836;28;21317;-76
2021/11/11 10:55:59;;;;;;;31.17;11.30;;;;;;;-142.99;70.81;49526.97;4979827;28;20061;-77
2021/11/11 10:58:32;;;;;;;38.65;12.93;;;;;;;-142.99;70.21;49519.03;4979979;28;20043;-77
2021/11/11 11:01:04;;;;;;;52.17;13.40;;;;;;;-142.99;66.71;49471.31;4976580;28;20383;-76
2021/11/11 11:03:32;;;;;;;;;;;;;;;-142.99;64.14;49401.72;4971580;28;20050;-76
2021/11/11 11:06:01;;;;;;;;;;;;;;;-142.99;57.33;49272.53;4985418;28;20339;-75
2021/11/11 11:08:29;;;;;;;;;;;;;;;-142.99;55.92;49236.75;4982901;28;19948;-75
2021/11/11 11:11:01;;;;;;;;;;;;;;;-142.99;51.83;49087.66;4977608;28;19936;-75
2021/11/11 11:13:34;;;;;;;;;;;;;;;-142.99;48.53;49085.69;4976845;28;19926;-74
2021/11/11 11:16:19;;;;;;;;;;;;;;;-142.99;49.34;49153.25;4980782;28;19989;-77
2021/11/11 11:18:46;;;;;;;;;;;;;;;-142.99;52.94;49350.06;4981075;28;20021;-75
2021/11/11 11:21:19;;;;;;;;;;;;;;;-142.99;56.89;49405.72;4982300;28;20917;-73
2021/11/11 11:23:49;;;;;;;;;;;;;;;-142.99;61.18;49461.38;4976658;28;20346;-75
2021/11/11 11:26:21;;;;;;;;;;;;;;;-142.99;66.08;49548.84;4980913;28;20383;-75
2021/11/11 11:29:12;;;;;;;;;;;;;;;-142.99;67.43;49530.94;4978240;28;19926;-74
2021/11/11 11:31:50;;;;;;;;;;;;;;;-142.99;69.90;49582.63;4971540;28;19984;-73
2021/11/11 11:34:21;;;;;;;;;;;;;;;-142.99;70.60;49570.69;4982661;28;19929;-74
2021/11/11 11:36:56;;;;;;;;;;;;;;;-142.99;66.08;49467.34;4977691;28;19928;-75
2021/11/11 11:39:25;;;;;;;;;;;;;;;-142.99;63.48;49501.13;4980863;28;20312;-77
2021/11/11 11:41:53;;;;;;;;;;;;;;;-142.99;61.07;49377.88;4980762;28;19930;-74
2021/11/11 11:44:28;;;;;;;;;;;;;;;-142.99;58.33;49375.91;4977610;28;20397;-73
2021/11/11 11:46:58;;;;;;;;;;;;;;;-142.99;59.89;49403.72;4964093;28;19973;-74
2021/11/11 11:49:26;;;;;;;;;;;;;;;-142.99;64.51;49497.16;4970835;28;20388;-72
2021/11/11 11:51:53;;;;;;;;;;;;;;;-142.99;69.31;49536.91;4976330;28;20342;-72